createdAt,value
2022-12-04T00:01:36.115Z,29.27
2022-12-04T00:04:03.725Z,29.70
2022-12-04T00:06:31.078Z,28.83
2022-12-04T00:08:58.438Z,29.60
2022-12-04T00:11:28.237Z,30.30
2022-12-04T00:13:57.346Z,29.43
2022-12-04T00:16:27.532Z,30.37
2022-12-04T00:18:55.061Z,31.87
2022-12-04T00:21:23.013Z,30.23
2022-12-04T00:23:50.687Z,29.70
2022-12-04T00:26:19.795Z,27.27
2022-12-04T00:28:47.187Z,29.13
2022-12-04T00:31:19.678Z,28.13
2022-12-04T00:33:47.105Z,29.47
2022-12-04T00:36:18.041Z,26.97
2022-12-04T00:38:45.807Z,25.57
2022-12-04T00:41:14.754Z,28.33
2022-12-04T00:43:42.397Z,27.50
2022-12-04T00:46:10.120Z,26.40
2022-12-04T00:48:37.606Z,25.43
2022-12-04T00:51:05.978Z,28.17
2022-12-04T00:53:33.371Z,27.03
2022-12-04T00:56:04.417Z,26.27
2022-12-04T00:58:32.069Z,25.53
2022-12-04T01:01:07.666Z,26.27
2022-12-04T01:03:35.538Z,26.83
2022-12-04T01:06:03.057Z,26.03
2022-12-04T01:08:30.664Z,27.50
2022-12-04T01:10:58.340Z,25.87
2022-12-04T01:13:25.951Z,25.20
2022-12-04T01:15:53.589Z,27.53
2022-12-04T01:18:21.237Z,29.53
2022-12-04T01:20:49.455Z,27.73
2022-12-04T01:23:17.252Z,27.13
2022-12-04T01:25:54.987Z,28.63
2022-12-04T01:28:22.618Z,27.90
2022-12-04T01:31:07.520Z,27.87
2022-12-04T01:33:35.443Z,25.53
2022-12-04T01:36:07.839Z,27.97
2022-12-04T01:38:35.406Z,26.10
2022-12-04T01:41:03.208Z,29.50
2022-12-04T01:43:31.575Z,28.10
2022-12-04T01:46:02.192Z,29.67
2022-12-04T01:48:33.392Z,30.87
2022-12-04T01:51:05.572Z,31.27
2022-12-04T01:53:34.760Z,30.03
2022-12-04T01:56:02.366Z,30.50
2022-12-04T01:58:32.816Z,29.93
2022-12-04T02:01:07.967Z,29.83
2022-12-04T02:03:36.930Z,30.63
2022-12-04T02:06:04.520Z,29.40
2022-12-04T02:08:31.951Z,28.47
2022-12-04T02:11:20.895Z,28.77
2022-12-04T02:14:04.039Z,28.87
2022-12-04T02:16:51.335Z,30.27
2022-12-04T02:19:26.229Z,28.83
2022-12-04T02:21:54.282Z,27.13
2022-12-04T02:24:50.403Z,25.30
2022-12-04T02:27:43.863Z,24.10
2022-12-04T02:30:14.341Z,22.33
2022-12-04T02:33:12.834Z,20.73
2022-12-04T02:36:05.533Z,20.53
2022-12-04T02:38:36.640Z,22.80
2022-12-04T02:41:08.874Z,23.33
2022-12-04T02:43:40.277Z,23.23
2022-12-04T02:46:11.326Z,24.87
2022-12-04T02:48:40.503Z,24.20
2022-12-04T02:51:07.894Z,27.43
2022-12-04T02:53:37.463Z,27.33
2022-12-04T02:56:16.541Z,25.13
2022-12-04T02:59:11.505Z,26.23
2022-12-04T03:01:41.437Z,24.67
2022-12-04T03:04:15.647Z,27.17
2022-12-04T03:06:44.219Z,27.77
2022-12-04T03:09:15.355Z,31.47
2022-12-04T03:11:45.999Z,28.80
2022-12-04T03:14:17.071Z,27.20
2022-12-04T03:16:44.756Z,30.37
2022-12-04T03:19:18.277Z,27.07
2022-12-04T03:21:58.240Z,27.37
2022-12-04T03:24:48.859Z,27.73
2022-12-04T03:27:25.525Z,27.50
2022-12-04T03:30:00.682Z,26.70
2022-12-04T03:32:45.265Z,26.47
2022-12-04T03:35:16.865Z,29.43
2022-12-04T03:38:01.053Z,28.17
2022-12-04T03:40:31.210Z,29.00
2022-12-04T03:43:20.075Z,30.50
2022-12-04T03:46:05.523Z,27.93
2022-12-04T03:48:42.710Z,27.77
2022-12-04T03:51:40.974Z,27.00
2022-12-04T03:54:12.326Z,28.13
2022-12-04T03:56:41.913Z,29.90
2022-12-04T03:59:12.635Z,26.77
2022-12-04T04:01:43.349Z,28.43
2022-12-04T04:04:13.349Z,26.50
2022-12-04T04:06:43.222Z,25.07
2022-12-04T04:09:16.218Z,25.83
2022-12-04T04:11:46.573Z,25.93
2022-12-04T04:14:38.436Z,26.10
2022-12-04T04:17:26.448Z,25.03
2022-12-04T04:20:25.538Z,25.07
2022-12-04T04:23:12.136Z,23.90
2022-12-04T04:25:40.442Z,25.27
2022-12-04T04:28:31.144Z,26.87
2022-12-04T04:31:24.846Z,23.53
2022-12-04T04:34:05.960Z,25.03
2022-12-04T04:36:39.550Z,24.23
2022-12-04T04:39:30.926Z,24.83
2022-12-04T04:42:26.622Z,23.47
2022-12-04T04:44:56.660Z,24.02
2022-12-04T04:47:38.796Z,24.73
2022-12-04T04:50:08.051Z,23.17
2022-12-04T04:52:36.932Z,22.90
2022-12-04T04:55:04.453Z,22.83
2022-12-04T04:57:34.095Z,22.03
2022-12-04T05:00:12.709Z,22.37
2022-12-04T05:02:40.424Z,20.90
2022-12-04T05:05:08.508Z,21.33
2022-12-04T05:07:35.914Z,20.77
2022-12-04T05:10:03.902Z,19.33
2022-12-04T05:12:31.506Z,19.40
2022-12-04T05:14:58.899Z,17.87
2022-12-04T05:17:26.283Z,17.90
2022-12-04T05:19:54.271Z,18.57
2022-12-04T05:22:26.373Z,18.37
2022-12-04T05:24:54.046Z,18.70
2022-12-04T05:27:22.091Z,18.97
2022-12-04T05:29:51.416Z,17.60
2022-12-04T05:32:19.039Z,16.80
2022-12-04T05:34:50.090Z,17.93
2022-12-04T05:37:17.489Z,17.43
2022-12-04T05:39:45.139Z,17.17
2022-12-04T05:42:12.585Z,17.13
2022-12-04T05:44:39.930Z,17.63
2022-12-04T05:47:07.743Z,17.27
2022-12-04T05:49:35.329Z,15.80
2022-12-04T05:52:03.136Z,15.73
2022-12-04T05:54:30.768Z,16.47
2022-12-04T05:56:58.111Z,16.53
2022-12-04T05:59:25.452Z,20.20
2022-12-04T06:01:53.135Z,16.87
2022-12-04T06:04:20.931Z,18.17
2022-12-04T06:06:48.480Z,23.00
2022-12-04T06:09:15.832Z,18.67
2022-12-04T06:11:43.430Z,16.03
2022-12-04T06:14:13.675Z,18.53
2022-12-04T06:16:43.309Z,15.93
2022-12-04T06:19:16.814Z,14.17
2022-12-04T06:21:45.098Z,14.97
2022-12-04T06:24:13.948Z,14.43
2022-12-04T06:27:03.928Z,15.37
2022-12-04T06:29:28.951Z,14.53
2022-12-04T06:31:56.338Z,15.70
2022-12-04T06:34:23.717Z,15.67
2022-12-04T06:36:51.353Z,15.67
2022-12-04T06:39:19.308Z,15.77
2022-12-04T06:41:47.594Z,15.33
2022-12-04T06:44:15.703Z,15.07
2022-12-04T06:46:46.763Z,15.03
2022-12-04T06:49:14.924Z,15.40
2022-12-04T06:51:42.231Z,16.53
2022-12-04T06:54:09.656Z,15.83
2022-12-04T06:56:37.294Z,16.00
2022-12-04T06:59:04.850Z,16.23
2022-12-04T07:01:33.377Z,17.73
2022-12-04T07:04:03.423Z,16.60
2022-12-04T07:06:32.691Z,15.87
2022-12-04T07:09:01.868Z,16.03
2022-12-04T07:11:29.525Z,15.23
2022-12-04T07:13:56.918Z,19.10
2022-12-04T07:16:25.069Z,18.07
2022-12-04T07:18:56.822Z,17.30
2022-12-04T07:21:25.661Z,17.50
2022-12-04T07:23:54.889Z,18.87
2022-12-04T07:26:22.369Z,20.20
2022-12-04T07:28:49.713Z,18.93
2022-12-04T07:31:18.875Z,21.80
2022-12-04T07:33:46.357Z,20.93
2022-12-04T07:36:15.168Z,19.57
2022-12-04T07:38:42.826Z,19.33
2022-12-04T07:41:10.984Z,21.17
2022-12-04T07:43:38.558Z,21.63
2022-12-04T07:46:07.992Z,21.97
2022-12-04T07:48:35.503Z,20.77
2022-12-04T07:51:09.918Z,21.77
2022-12-04T07:53:37.581Z,22.20
2022-12-04T07:56:05.590Z,21.70
2022-12-04T07:58:33.370Z,23.17
2022-12-04T08:01:12.282Z,25.30
2022-12-04T08:03:45.441Z,25.73
2022-12-04T08:06:14.804Z,24.60
2022-12-04T08:08:42.570Z,24.80
2022-12-04T08:11:11.357Z,25.27
2022-12-04T08:13:38.705Z,26.57
2022-12-04T08:16:07.935Z,27.33
2022-12-04T08:18:35.475Z,26.30
2022-12-04T08:21:13.918Z,26.33
2022-12-04T08:23:42.072Z,25.87
2022-12-04T08:26:09.651Z,28.33
2022-12-04T08:28:37.327Z,27.43
2022-12-04T08:31:15.353Z,28.33
2022-12-04T08:33:43.046Z,27.10
2022-12-04T08:36:12.721Z,26.77
2022-12-04T08:38:40.076Z,27.83
2022-12-04T08:41:08.214Z,27.97
2022-12-04T08:43:35.842Z,28.40
2022-12-04T08:46:05.261Z,28.07
2022-12-04T08:48:32.816Z,27.90
2022-12-04T08:51:00.541Z,27.87
2022-12-04T08:53:27.897Z,27.70
2022-12-04T08:55:55.245Z,28.03
2022-12-04T08:58:23.189Z,27.10
2022-12-04T09:00:50.672Z,25.80
2022-12-04T09:03:18.903Z,27.40
2022-12-04T09:05:46.649Z,25.87
2022-12-04T09:08:15.421Z,25.00
2022-12-04T09:10:45.398Z,26.47
2022-12-04T09:13:13.010Z,27.60
2022-12-04T09:15:40.528Z,28.17
2022-12-04T09:18:08.188Z,26.40
2022-12-04T09:20:35.882Z,25.63
2022-12-04T09:23:05.214Z,24.90
2022-12-04T09:25:36.682Z,25.13
2022-12-04T09:28:04.463Z,26.83
2022-12-04T09:30:31.847Z,26.17
2022-12-04T09:32:59.228Z,27.60
2022-12-04T09:35:26.930Z,25.20
2022-12-04T09:37:54.266Z,27.47
2022-12-04T09:40:35.509Z,25.87
2022-12-04T09:43:23.534Z,25.43
2022-12-04T09:45:52.392Z,26.70
2022-12-04T09:48:19.990Z,25.90
2022-12-04T09:50:48.180Z,26.07
2022-12-04T09:53:18.545Z,29.13
2022-12-04T09:55:58.442Z,27.80
2022-12-04T09:58:29.053Z,26.83
2022-12-04T10:00:56.680Z,25.67
2022-12-04T10:03:25.600Z,26.93
2022-12-04T10:05:52.846Z,25.47
2022-12-04T10:08:34.769Z,25.00
2022-12-04T10:11:34.137Z,24.07
2022-12-04T10:14:06.198Z,21.37
2022-12-04T10:16:39.778Z,16.10
2022-12-04T10:19:22.073Z,17.07
2022-12-04T10:22:14.244Z,18.33
2022-12-04T10:24:48.170Z,17.27
2022-12-04T10:27:33.843Z,13.50
2022-12-04T10:30:03.459Z,15.75
2022-12-04T10:32:34.204Z,13.67
2022-12-04T10:35:37.949Z,14.53
2022-12-04T10:38:37.272Z,14.37
2022-12-04T10:41:42.556Z,13.57
2022-12-04T10:44:14.453Z,13.35
2022-12-04T10:46:45.721Z,14.65
2022-12-04T10:49:17.835Z,13.95
2022-12-04T10:51:45.297Z,13.03
2022-12-04T10:54:24.531Z,14.60
2022-12-04T10:56:56.874Z,14.03
2022-12-04T10:59:24.569Z,15.23
2022-12-04T11:01:52.921Z,13.97
2022-12-04T11:04:24.882Z,14.50
2022-12-04T11:07:01.610Z,15.77
2022-12-04T11:09:29.555Z,14.98
2022-12-04T11:12:09.195Z,15.18
2022-12-04T11:14:36.582Z,15.07
2022-12-04T11:17:05.852Z,15.13
2022-12-04T11:19:34.832Z,14.07
2022-12-04T11:22:18.767Z,15.03
2022-12-04T11:24:50.876Z,16.48
2022-12-04T11:27:29.485Z,15.43
2022-12-04T11:29:57.690Z,15.80
2022-12-04T11:32:33.351Z,17.03
2022-12-04T11:35:13.388Z,16.17
2022-12-04T11:37:45.364Z,16.35
2022-12-04T11:40:16.852Z,17.12
2022-12-04T11:42:44.277Z,16.83
2022-12-04T11:45:22.355Z,16.95
2022-12-04T11:47:57.405Z,16.40
2022-12-04T11:51:05.932Z,18.20
2022-12-04T11:53:47.892Z,15.90
2022-12-04T11:56:34.763Z,17.10
2022-12-04T11:59:26.564Z,16.77
2022-12-04T12:02:12.152Z,16.87
2022-12-04T12:05:06.283Z,16.95
2022-12-04T12:08:02.490Z,16.00
2022-12-04T12:10:40.069Z,17.37
2022-12-04T12:13:28.945Z,16.98
2022-12-04T12:16:11.848Z,16.65
2022-12-04T12:19:00.574Z,15.50
2022-12-04T12:21:37.140Z,16.30
2022-12-04T12:24:27.067Z,16.05
2022-12-04T12:27:22.592Z,17.55
2022-12-04T12:30:02.137Z,18.27
2022-12-04T12:33:01.184Z,15.77
2022-12-04T12:35:49.572Z,17.45
2022-12-04T12:38:18.965Z,18.08
2022-12-04T12:40:50.360Z,17.58
2022-12-04T12:43:32.265Z,18.52
2022-12-04T12:46:14.515Z,16.83
2022-12-04T12:49:11.075Z,18.02
2022-12-04T12:54:16.083Z,16.45
2022-12-04T12:56:49.718Z,17.67
2022-12-04T12:59:20.449Z,18.80
2022-12-04T13:02:00.138Z,18.77
2022-12-04T13:04:48.912Z,17.85
2022-12-04T13:07:26.560Z,17.73
2022-12-04T13:10:06.875Z,18.48
2022-12-04T13:13:06.747Z,18.20
2022-12-04T13:15:54.995Z,16.70
2022-12-04T13:18:30.496Z,17.20
2022-12-04T13:21:00.284Z,19.25
2022-12-04T13:24:06.643Z,18.90
2022-12-04T13:27:04.414Z,19.10
2022-12-04T13:30:01.987Z,18.35
2022-12-04T13:32:48.310Z,18.02
2022-12-04T13:35:37.730Z,19.05
2022-12-04T13:39:02.278Z,16.75
2022-12-04T13:41:29.797Z,16.37
2022-12-04T13:43:59.018Z,17.62
2022-12-04T13:46:34.197Z,16.48
2022-12-04T13:49:34.315Z,17.30
2022-12-04T13:52:03.880Z,17.27
2022-12-04T13:54:35.636Z,16.60
2022-12-04T13:57:15.085Z,18.70
2022-12-04T13:59:42.707Z,17.05
2022-12-04T14:02:39.542Z,16.42
2022-12-04T14:05:08.299Z,18.05
2022-12-04T14:07:37.507Z,18.30
2022-12-04T14:10:28.202Z,15.38
2022-12-04T14:12:59.376Z,16.45
2022-12-04T14:15:31.140Z,18.58
2022-12-04T14:18:05.030Z,17.12
2022-12-04T14:20:33.095Z,18.00
2022-12-04T14:23:16.502Z,17.92
2022-12-04T14:25:43.901Z,17.83
2022-12-04T14:28:23.778Z,18.17
2022-12-04T14:31:12.636Z,19.50
2022-12-04T14:33:45.789Z,19.65
2022-12-04T14:36:39.531Z,20.60
2022-12-04T14:39:25.998Z,19.92
2022-12-04T14:41:56.876Z,21.55
2022-12-04T14:44:28.755Z,20.05
2022-12-04T14:47:15.208Z,19.83
2022-12-04T14:50:04.868Z,21.87
2022-12-04T14:52:36.705Z,19.90
2022-12-04T14:55:23.663Z,23.98
2022-12-04T14:58:34.357Z,22.13
2022-12-04T15:01:28.424Z,20.12
2022-12-04T15:03:59.051Z,21.33
2022-12-04T15:06:31.699Z,20.35
2022-12-04T15:09:22.819Z,23.48
2022-12-04T15:12:10.877Z,23.15
2022-12-04T15:14:46.121Z,23.52
2022-12-04T15:17:15.677Z,25.30
2022-12-04T15:19:43.188Z,21.52
2022-12-04T15:22:22.072Z,22.15
2022-12-04T15:24:50.701Z,20.48
2022-12-04T15:27:19.508Z,20.55
2022-12-04T15:29:49.116Z,19.10
2022-12-04T15:32:17.781Z,18.95
2022-12-04T15:34:50.128Z,19.52
2022-12-04T15:37:21.208Z,19.87
2022-12-04T15:39:49.884Z,19.48
2022-12-04T15:42:23.023Z,19.07
2022-12-04T15:45:01.320Z,19.55
2022-12-04T15:47:53.531Z,19.70
2022-12-04T15:50:22.148Z,18.52
2022-12-04T15:53:20.927Z,20.23
2022-12-04T15:55:53.235Z,18.05
2022-12-04T15:58:28.951Z,18.60
2022-12-04T16:01:00.657Z,19.60
2022-12-04T16:03:44.173Z,20.30
2022-12-04T16:06:21.941Z,20.17
2022-12-04T16:08:54.453Z,19.98
2022-12-04T16:11:21.730Z,20.53
2022-12-04T16:14:01.734Z,20.23
2022-12-04T16:16:29.453Z,21.10
2022-12-04T16:18:56.956Z,21.60
2022-12-04T16:21:31.213Z,21.50
2022-12-04T16:24:05.698Z,20.48
2022-12-04T16:26:33.083Z,22.98
2022-12-04T16:29:00.956Z,22.67
2022-12-04T16:31:28.398Z,22.40
2022-12-04T16:33:55.763Z,22.60
2022-12-04T16:36:23.352Z,26.12
2022-12-04T16:38:51.409Z,25.77
2022-12-04T16:41:19.195Z,23.15
2022-12-04T16:43:52.375Z,25.35
2022-12-04T16:46:19.801Z,23.10
2022-12-04T16:48:47.393Z,23.08
2022-12-04T16:51:15.654Z,24.80
2022-12-04T16:53:43.019Z,24.20
2022-12-04T16:56:10.770Z,25.47
2022-12-04T16:58:38.101Z,23.45
2022-12-04T17:01:05.975Z,23.45
2022-12-04T17:03:33.969Z,24.58
2022-12-04T17:06:01.485Z,23.92
2022-12-04T17:08:29.688Z,26.23
2022-12-04T17:10:57.382Z,24.03
2022-12-04T17:13:24.714Z,25.07
2022-12-04T17:15:52.057Z,25.50
2022-12-04T17:18:21.532Z,27.02
2022-12-04T17:20:49.137Z,26.27
2022-12-04T17:23:16.703Z,25.35
2022-12-04T17:25:44.491Z,27.15
2022-12-04T17:28:11.811Z,28.75
2022-12-04T17:30:39.163Z,28.03
2022-12-04T17:33:06.760Z,28.60
2022-12-04T17:35:34.151Z,28.42
2022-12-04T17:38:05.897Z,27.35
2022-12-04T17:40:34.276Z,26.08
2022-12-04T17:43:01.701Z,26.48
2022-12-04T17:45:29.027Z,28.02
2022-12-04T17:47:56.694Z,25.45
2022-12-04T17:50:24.022Z,26.15
2022-12-04T17:52:51.341Z,26.15
2022-12-04T17:55:18.984Z,26.02
2022-12-04T17:57:46.332Z,25.13
2022-12-04T18:00:13.870Z,26.80
2022-12-04T18:02:42.491Z,26.20
2022-12-04T18:05:09.889Z,26.30
2022-12-04T18:07:37.300Z,25.37
2022-12-04T18:10:05.599Z,24.77
2022-12-04T18:12:32.943Z,26.02
2022-12-04T18:15:00.318Z,28.20
2022-12-04T18:17:27.931Z,27.15
2022-12-04T18:19:57.757Z,25.88
2022-12-04T18:22:28.837Z,28.33
2022-12-04T18:24:56.300Z,24.50
2022-12-04T18:27:23.848Z,29.30
2022-12-04T18:29:51.457Z,26.20
2022-12-04T18:32:18.795Z,26.75
2022-12-04T18:34:46.230Z,27.00
2022-12-04T18:37:13.950Z,28.98
2022-12-04T18:39:41.287Z,26.75
2022-12-04T18:42:08.639Z,26.62
2022-12-04T18:44:36.344Z,27.62
2022-12-04T18:47:03.680Z,30.57
2022-12-04T18:49:31.143Z,28.03
2022-12-04T18:51:59.065Z,27.50
2022-12-04T18:54:26.413Z,27.50
2022-12-04T18:56:53.736Z,27.37
2022-12-04T18:59:23.230Z,28.23
2022-12-04T19:01:51.058Z,28.00
2022-12-04T19:04:19.531Z,24.75
2022-12-04T19:06:51.001Z,26.60
2022-12-04T19:09:40.944Z,28.10
2022-12-04T19:12:11.674Z,27.40
2022-12-04T19:14:39.756Z,24.67
2022-12-04T19:17:07.258Z,26.20
2022-12-04T19:19:34.932Z,26.10
2022-12-04T19:22:02.288Z,26.90
2022-12-04T19:24:29.700Z,26.93
2022-12-04T19:26:57.478Z,25.97
2022-12-04T19:29:24.790Z,26.00
2022-12-04T19:31:57.569Z,26.73
2022-12-04T19:34:26.693Z,26.03
2022-12-04T19:36:54.274Z,24.90
2022-12-04T19:39:21.650Z,24.98
2022-12-04T19:41:49.369Z,24.77
2022-12-04T19:44:47.285Z,25.10
2022-12-04T19:47:04.419Z,24.57
2022-12-04T19:49:31.768Z,26.02
2022-12-04T19:51:59.129Z,26.73
2022-12-04T19:54:27.412Z,25.43
2022-12-04T19:56:54.744Z,24.35
2022-12-04T19:59:22.043Z,24.02
2022-12-04T20:01:49.879Z,23.40
2022-12-04T20:04:17.647Z,21.83
2022-12-04T20:06:45.634Z,21.53
2022-12-04T20:09:15.763Z,19.87
2022-12-04T20:11:43.373Z,22.02
2022-12-04T20:14:10.805Z,24.02
2022-12-04T20:16:38.729Z,22.60
2022-12-04T20:19:07.388Z,22.48
2022-12-04T20:21:34.710Z,20.85
2022-12-04T20:24:04.058Z,20.62
2022-12-04T20:26:33.463Z,19.87
2022-12-04T20:29:01.078Z,18.92
2022-12-04T20:31:39.133Z,18.05
2022-12-04T20:34:08.292Z,18.90
2022-12-04T20:36:40.117Z,16.98
2022-12-04T20:39:07.858Z,16.17
2022-12-04T20:41:35.328Z,15.00
2022-12-04T20:44:04.089Z,14.18
2022-12-04T20:46:36.456Z,15.55
2022-12-04T20:49:06.261Z,12.77
2022-12-04T20:51:35.806Z,14.18
2022-12-04T20:54:03.255Z,11.02
2022-12-04T20:56:32.950Z,12.20
2022-12-04T20:59:03.068Z,10.95
2022-12-04T21:01:30.508Z,11.00
2022-12-04T21:04:00.978Z,10.70
2022-12-04T21:06:35.864Z,10.07
2022-12-04T21:09:27.488Z,8.57
2022-12-04T21:11:55.359Z,8.52
2022-12-04T21:14:43.102Z,8.65
2022-12-04T21:17:16.520Z,9.27
2022-12-04T21:19:44.838Z,8.25
2022-12-04T21:22:13.063Z,7.10
2022-12-04T21:24:42.116Z,8.20
2022-12-04T21:27:10.980Z,7.43
2022-12-04T21:29:40.096Z,7.53
2022-12-04T21:32:07.429Z,7.47
2022-12-04T21:34:34.907Z,8.00
2022-12-04T21:37:02.625Z,7.70
2022-12-04T21:39:29.982Z,7.40
2022-12-04T21:42:16.036Z,7.80
2022-12-04T21:44:43.779Z,7.40
2022-12-04T21:47:11.237Z,7.93
2022-12-04T21:49:38.573Z,7.10
2022-12-04T21:52:06.176Z,7.50
2022-12-04T21:54:33.510Z,7.30
2022-12-04T21:57:00.880Z,7.18
2022-12-04T21:59:28.539Z,7.63
2022-12-04T22:01:55.923Z,6.70
2022-12-04T22:04:23.659Z,7.30
2022-12-04T22:06:51.008Z,7.37
2022-12-04T22:09:18.353Z,7.37
2022-12-04T22:11:46.084Z,6.68
2022-12-04T22:14:13.730Z,7.25
2022-12-04T22:16:43.421Z,6.57
2022-12-04T22:19:12.135Z,6.53
2022-12-04T22:21:39.702Z,6.03
2022-12-04T22:24:07.919Z,6.72
2022-12-04T22:26:35.597Z,7.05
2022-12-04T22:29:11.250Z,6.22
2022-12-04T22:31:50.917Z,5.60
2022-12-04T22:34:18.301Z,6.70
2022-12-04T22:36:45.656Z,5.60
2022-12-04T22:39:13.243Z,6.45
2022-12-04T22:41:40.582Z,6.32
2022-12-04T22:44:07.910Z,6.90
2022-12-04T22:46:35.569Z,6.28
2022-12-04T22:49:02.994Z,5.57
2022-12-04T22:51:30.528Z,6.20
2022-12-04T22:53:58.440Z,7.20
2022-12-04T22:56:27.461Z,6.37
2022-12-04T22:58:54.835Z,6.07
2022-12-04T23:01:23.289Z,6.17
2022-12-04T23:03:50.981Z,6.53
2022-12-04T23:06:19.379Z,6.93
2022-12-04T23:08:46.936Z,6.70
2022-12-04T23:11:16.612Z,6.73
2022-12-04T23:13:44.111Z,7.40
2022-12-04T23:16:16.907Z,6.87
2022-12-04T23:18:47.189Z,7.72
2022-12-04T23:21:14.929Z,6.65
2022-12-04T23:23:43.263Z,7.67
2022-12-04T23:26:12.794Z,7.62
2022-12-04T23:28:40.418Z,7.20
2022-12-04T23:31:07.940Z,6.80
2022-12-04T23:33:35.531Z,7.17
2022-12-04T23:36:03.908Z,7.17
2022-12-04T23:38:31.312Z,6.65
2022-12-04T23:41:05.546Z,6.90
2022-12-04T23:43:33.379Z,6.77
2022-12-04T23:46:04.486Z,6.87
2022-12-04T23:48:35.062Z,6.57
2022-12-04T23:51:02.412Z,6.43
2022-12-04T23:53:29.748Z,5.93
2022-12-04T23:56:05.219Z,7.13
2022-12-04T23:58:32.875Z,6.10
